Date,TemperatureHighF,TemperatureAvgF,TemperatureLowF,DewpointHighF,DewpointAvgF,DewpointLowF,HumidityHigh,HumidityAvg,HumidityLow,PressureMaxIn,PressureMinIn,WindSpeedMaxMPH,WindSpeedAvgMPH,GustSpeedMaxMPH,PrecipitationSumIn
2013-1-1,78,67,55,60,55,52,89,67,52,30.09,29.78,12,4,12,0.00
2013-1-2,74,66,57,65,60,52,87,82,73,29.95,23.81,12,3,12,0.00
2013-1-3,60,56,49,56,52,46,89,87,85,29.17,28.83,9,2,9,0.00
2013-1-4,57,51,47,52,46,43,88,85,78,29.77,29.14,8,2,8,0.00
2013-1-5,73,54,42,57,46,37,86,75,53,29.75,28.51,9,1,9,0.00
2013-1-6,62,55,51,54,50,47,89,83,75,29.64,29.51,7,2,7,0.00
2013-1-7,68,54,45,56,48,42,89,81,62,29.76,29.61,17,4,17,0.00
2013-1-8,72,60,56,64,55,51,88,84,73,29.75,29.52,12,3,12,0.00
2013-1-9,80,66,60,70,61,56,90,85,68,29.54,25.98,10,1,10,0.00
2013-1-10,80,67,63,68,61,57,88,81,65,30.04,26.88,5,1,5,0.00
2013-1-11,90,70,60,68,61,55,86,74,45,29.12,24.54,8,1,8,0.00
2013-1-12,90,70,60,70,61,55,85,74,43,26.96,24.64,6,1,6,0.00
2013-1-13,84,70,62,68,60,56,84,73,52,27.45,21.04,6,1,6,0.00
2013-1-17,56,50,44,43,39,34,70,67,61,12.36,12.36,15,8,15,0.00
2013-1-18,65,51,43,47,40,34,75,67,49,30.29,17.36,24,9,24,0.00
2013-1-19,70,59,46,56,50,39,80,73,59,29.55,26.10,21,7,21,0.00
2013-1-20,85,62,52,61,50,44,82,67,36,28.67,28.18,11,2,11,0.00
2013-1-21,72,58,49,53,47,43,80,66,48,28.82,28.48,10,2,10,0.00
2013-1-22,70,54,45,43,37,33,69,54,30,30.09,27.44,13,4,13,0.00
2013-1-23,73,52,38,43,36,29,72,56,31,28.77,25.79,10,2,10,0.00
2013-1-24,77,60,47,53,46,38,75,62,43,29.32,26.42,15,4,15,0.00
2013-1-25,80,62,53,60,50,47,79,68,36,28.56,27.46,12,3,12,0.00
2013-1-26,79,65,54,61,54,47,84,70,52,27.95,27.55,12,3,12,0.00
2013-1-27,75,62,58,59,53,51,80,73,53,28.20,27.33,20,6,20,0.00
2013-1-28,80,66,55,64,57,49,83,74,56,27.73,27.47,8,2,8,0.00
2013-1-29,84,68,58,69,60,53,83,75,56,27.66,25.99,9,2,9,0.00
2013-1-30,86,74,58,66,62,52,82,69,51,30.48,23.78,23,7,23,0.00
2013-1-31,66,54,45,52,38,29,81,57,30,28.82,24.16,15,5,15,0.00